sensor_id;sensor_type;location;lat;lon;timestamp;P1;durP1;ratioP1;P2;durP2;ratioP2
65315;SDS011;51920;53.952;10.292;2023-02-28T00:01:21;8.07;;;4.15;;
65315;SDS011;51920;53.952;10.292;2023-02-28T00:03:47;7.70;;;4.28;;
65315;SDS011;51920;53.952;10.292;2023-02-28T00:06:13;6.77;;;4.37;;
65315;SDS011;51920;53.952;10.292;2023-02-28T00:08:39;8.00;;;4.30;;
65315;SDS011;51920;53.952;10.292;2023-02-28T00:11:05;7.07;;;4.30;;
65315;SDS011;51920;53.952;10.292;2023-02-28T00:13:37;8.43;;;4.57;;
65315;SDS011;51920;53.952;10.292;2023-02-28T00:16:05;7.22;;;4.07;;
65315;SDS011;51920;53.952;10.292;2023-02-28T00:18:36;8.30;;;4.90;;
65315;SDS011;51920;53.952;10.292;2023-02-28T00:21:02;9.77;;;4.68;;
65315;SDS011;51920;53.952;10.292;2023-02-28T00:23:27;8.03;;;4.43;;
65315;SDS011;51920;53.952;10.292;2023-02-28T00:25:53;8.10;;;4.82;;
65315;SDS011;51920;53.952;10.292;2023-02-28T00:28:19;7.70;;;4.47;;
65315;SDS011;51920;53.952;10.292;2023-02-28T00:30:45;9.57;;;5.00;;
65315;SDS011;51920;53.952;10.292;2023-02-28T00:33:11;9.10;;;5.05;;
65315;SDS011;51920;53.952;10.292;2023-02-28T00:35:37;9.70;;;5.23;;
65315;SDS011;51920;53.952;10.292;2023-02-28T00:38:03;9.17;;;5.27;;
65315;SDS011;51920;53.952;10.292;2023-02-28T00:40:28;10.95;;;5.00;;
65315;SDS011;51920;53.952;10.292;2023-02-28T00:42:54;8.53;;;5.37;;
65315;SDS011;51920;53.952;10.292;2023-02-28T00:45:20;8.55;;;5.60;;
65315;SDS011;51920;53.952;10.292;2023-02-28T00:47:45;8.83;;;5.40;;
65315;SDS011;51920;53.952;10.292;2023-02-28T00:50:15;10.57;;;5.57;;
65315;SDS011;51920;53.952;10.292;2023-02-28T00:52:42;7.72;;;5.38;;
65315;SDS011;51920;53.952;10.292;2023-02-28T00:55:07;9.87;;;5.90;;
65315;SDS011;51920;53.952;10.292;2023-02-28T00:57:33;9.33;;;5.53;;
65315;SDS011;51920;53.952;10.292;2023-02-28T00:59:58;10.43;;;5.70;;
65315;SDS011;51920;53.952;10.292;2023-02-28T01:02:24;9.00;;;5.70;;
65315;SDS011;51920;53.952;10.292;2023-02-28T01:04:51;9.40;;;5.32;;
65315;SDS011;51920;53.952;10.292;2023-02-28T01:07:17;8.73;;;5.67;;
65315;SDS011;51920;53.952;10.292;2023-02-28T01:09:42;8.83;;;5.23;;
65315;SDS011;51920;53.952;10.292;2023-02-28T01:12:08;9.90;;;5.67;;
65315;SDS011;51920;53.952;10.292;2023-02-28T01:14:34;10.80;;;5.43;;
65315;SDS011;51920;53.952;10.292;2023-02-28T01:17:00;9.45;;;5.53;;
65315;SDS011;51920;53.952;10.292;2023-02-28T01:19:26;10.95;;;5.88;;
65315;SDS011;51920;53.952;10.292;2023-02-28T01:21:51;10.17;;;5.67;;
65315;SDS011;51920;53.952;10.292;2023-02-28T01:24:17;9.97;;;5.47;;
65315;SDS011;51920;53.952;10.292;2023-02-28T01:26:43;9.40;;;5.83;;
65315;SDS011;51920;53.952;10.292;2023-02-28T01:29:09;9.90;;;5.53;;
65315;SDS011;51920;53.952;10.292;2023-02-28T01:31:34;10.17;;;6.07;;
65315;SDS011;51920;53.952;10.292;2023-02-28T01:34:00;10.43;;;5.80;;
65315;SDS011;51920;53.952;10.292;2023-02-28T01:36:27;8.73;;;5.30;;
65315;SDS011;51920;53.952;10.292;2023-02-28T01:38:55;9.32;;;5.43;;
65315;SDS011;51920;53.952;10.292;2023-02-28T01:41:22;10.45;;;6.25;;
65315;SDS011;51920;53.952;10.292;2023-02-28T01:46:15;10.00;;;6.28;;
65315;SDS011;51920;53.952;10.292;2023-02-28T01:48:45;10.13;;;6.20;;
65315;SDS011;51920;53.952;10.292;2023-02-28T01:51:21;12.02;;;5.97;;
65315;SDS011;51920;53.952;10.292;2023-02-28T01:53:51;10.48;;;6.18;;
65315;SDS011;51920;53.952;10.292;2023-02-28T01:56:23;11.45;;;6.55;;
65315;SDS011;51920;53.952;10.292;2023-02-28T01:58:51;10.80;;;6.05;;
65315;SDS011;51920;53.952;10.292;2023-02-28T02:01:18;9.73;;;5.67;;
65315;SDS011;51920;53.952;10.292;2023-02-28T02:03:53;10.02;;;6.22;;
65315;SDS011;51920;53.952;10.292;2023-02-28T02:06:25;9.77;;;6.22;;
65315;SDS011;51920;53.952;10.292;2023-02-28T02:08:53;8.52;;;5.72;;
65315;SDS011;51920;53.952;10.292;2023-02-28T02:11:19;10.63;;;6.33;;
65315;SDS011;51920;53.952;10.292;2023-02-28T02:25:18;11.30;;;6.85;;
65315;SDS011;51920;53.952;10.292;2023-02-28T02:28:06;14.38;;;6.35;;
65315;SDS011;51920;53.952;10.292;2023-02-28T02:36:00;9.73;;;5.87;;
65315;SDS011;51920;53.952;10.292;2023-02-28T02:38:38;9.90;;;5.47;;
65315;SDS011;51920;53.952;10.292;2023-02-28T02:41:16;9.80;;;6.20;;
65315;SDS011;51920;53.952;10.292;2023-02-28T02:43:49;10.85;;;5.55;;
65315;SDS011;51920;53.952;10.292;2023-02-28T02:47:01;10.07;;;6.40;;
65315;SDS011;51920;53.952;10.292;2023-02-28T02:49:09;11.40;;;5.90;;
65315;SDS011;51920;53.952;10.292;2023-02-28T02:51:38;11.52;;;6.38;;
65315;SDS011;51920;53.952;10.292;2023-02-28T02:54:08;11.52;;;6.10;;
65315;SDS011;51920;53.952;10.292;2023-02-28T02:56:41;10.85;;;6.10;;
65315;SDS011;51920;53.952;10.292;2023-02-28T02:59:11;10.13;;;5.55;;
65315;SDS011;51920;53.952;10.292;2023-02-28T03:01:51;10.23;;;5.87;;
65315;SDS011;51920;53.952;10.292;2023-02-28T03:04:20;10.45;;;6.03;;
65315;SDS011;51920;53.952;10.292;2023-02-28T03:06:50;10.20;;;6.00;;
65315;SDS011;51920;53.952;10.292;2023-02-28T03:09:21;10.52;;;5.90;;
65315;SDS011;51920;53.952;10.292;2023-02-28T03:11:47;11.23;;;6.32;;
65315;SDS011;51920;53.952;10.292;2023-02-28T03:14:27;10.47;;;5.90;;
65315;SDS011;51920;53.952;10.292;2023-02-28T03:19:41;8.30;;;5.70;;
65315;SDS011;51920;53.952;10.292;2023-02-28T03:24:46;8.50;;;5.53;;
65315;SDS011;51920;53.952;10.292;2023-02-28T03:27:39;11.13;;;5.90;;
65315;SDS011;51920;53.952;10.292;2023-02-28T03:33:10;12.00;;;6.45;;
65315;SDS011;51920;53.952;10.292;2023-02-28T03:35:41;11.27;;;7.10;;
65315;SDS011;51920;53.952;10.292;2023-02-28T03:38:15;13.75;;;6.82;;
65315;SDS011;51920;53.952;10.292;2023-02-28T03:40:50;10.77;;;6.03;;
65315;SDS011;51920;53.952;10.292;2023-02-28T03:43:24;12.43;;;5.95;;
65315;SDS011;51920;53.952;10.292;2023-02-28T03:45:55;12.88;;;6.28;;
65315;SDS011;51920;53.952;10.292;2023-02-28T03:48:30;10.45;;;6.32;;
65315;SDS011;51920;53.952;10.292;2023-02-28T03:50:59;12.68;;;6.15;;
65315;SDS011;51920;53.952;10.292;2023-02-28T03:53:39;9.67;;;5.77;;
65315;SDS011;51920;53.952;10.292;2023-02-28T03:56:13;11.73;;;6.22;;
65315;SDS011;51920;53.952;10.292;2023-02-28T04:01:18;11.30;;;6.55;;
65315;SDS011;51920;53.952;10.292;2023-02-28T04:03:49;10.57;;;6.53;;
65315;SDS011;51920;53.952;10.292;2023-02-28T04:06:16;9.37;;;5.80;;
65315;SDS011;51920;53.952;10.292;2023-02-28T04:08:43;10.23;;;6.13;;
65315;SDS011;51920;53.952;10.292;2023-02-28T04:14:00;9.02;;;4.90;;
65315;SDS011;51920;53.952;10.292;2023-02-28T04:16:27;10.40;;;5.82;;
65315;SDS011;51920;53.952;10.292;2023-02-28T04:18:53;11.52;;;6.30;;
65315;SDS011;51920;53.952;10.292;2023-02-28T04:21:18;13.87;;;7.07;;
65315;SDS011;51920;53.952;10.292;2023-02-28T04:23:47;10.50;;;6.20;;
65315;SDS011;51920;53.952;10.292;2023-02-28T04:26:12;11.13;;;6.63;;
65315;SDS011;51920;53.952;10.292;2023-02-28T04:28:38;9.20;;;5.97;;
65315;SDS011;51920;53.952;10.292;2023-02-28T04:31:04;8.73;;;5.72;;
65315;SDS011;51920;53.952;10.292;2023-02-28T04:33:30;11.03;;;5.80;;
65315;SDS011;51920;53.952;10.292;2023-02-28T04:36:07;12.50;;;6.38;;
65315;SDS011;51920;53.952;10.292;2023-02-28T04:38:34;10.00;;;5.75;;
65315;SDS011;51920;53.952;10.292;2023-02-28T04:41:01;9.48;;;5.95;;
65315;SDS011;51920;53.952;10.292;2023-02-28T04:43:28;10.18;;;5.80;;
65315;SDS011;51920;53.952;10.292;2023-02-28T04:45:55;10.27;;;5.93;;
65315;SDS011;51920;53.952;10.292;2023-02-28T04:48:22;12.52;;;6.68;;
65315;SDS011;51920;53.952;10.292;2023-02-28T04:50:49;11.88;;;6.25;;
65315;SDS011;51920;53.952;10.292;2023-02-28T04:53:14;12.20;;;6.20;;
65315;SDS011;51920;53.952;10.292;2023-02-28T04:55:39;10.93;;;5.90;;
65315;SDS011;51920;53.952;10.292;2023-02-28T04:58:05;12.10;;;6.30;;
65315;SDS011;51920;53.952;10.292;2023-02-28T05:00:31;10.37;;;5.80;;
65315;SDS011;51920;53.952;10.292;2023-02-28T05:02:56;11.20;;;5.30;;
65315;SDS011;51920;53.952;10.292;2023-02-28T05:05:22;10.80;;;5.83;;
65315;SDS011;51920;53.952;10.292;2023-02-28T05:07:47;12.00;;;5.77;;
65315;SDS011;51920;53.952;10.292;2023-02-28T05:10:13;9.27;;;5.20;;
65315;SDS011;51920;53.952;10.292;2023-02-28T05:12:38;14.00;;;6.77;;
65315;SDS011;51920;53.952;10.292;2023-02-28T05:15:04;14.17;;;7.10;;
65315;SDS011;51920;53.952;10.292;2023-02-28T05:17:30;13.50;;;6.40;;
65315;SDS011;51920;53.952;10.292;2023-02-28T05:19:56;10.18;;;6.22;;
65315;SDS011;51920;53.952;10.292;2023-02-28T05:22:21;10.33;;;5.93;;
65315;SDS011;51920;53.952;10.292;2023-02-28T05:24:47;11.00;;;6.27;;
65315;SDS011;51920;53.952;10.292;2023-02-28T05:27:13;12.25;;;6.22;;
65315;SDS011;51920;53.952;10.292;2023-02-28T05:29:38;11.70;;;6.10;;
65315;SDS011;51920;53.952;10.292;2023-02-28T05:32:10;10.90;;;6.35;;
65315;SDS011;51920;53.952;10.292;2023-02-28T05:34:37;12.70;;;6.60;;
65315;SDS011;51920;53.952;10.292;2023-02-28T05:37:03;9.57;;;6.10;;
65315;SDS011;51920;53.952;10.292;2023-02-28T05:39:29;10.93;;;6.05;;
65315;SDS011;51920;53.952;10.292;2023-02-28T05:41:55;10.17;;;5.80;;
65315;SDS011;51920;53.952;10.292;2023-02-28T05:44:20;10.02;;;5.65;;
65315;SDS011;51920;53.952;10.292;2023-02-28T05:46:46;11.83;;;6.20;;
65315;SDS011;51920;53.952;10.292;2023-02-28T05:49:11;10.73;;;6.40;;
65315;SDS011;51920;53.952;10.292;2023-02-28T05:51:37;13.18;;;6.80;;
65315;SDS011;51920;53.952;10.292;2023-02-28T05:54:05;12.07;;;6.82;;
65315;SDS011;51920;53.952;10.292;2023-02-28T05:56:30;12.30;;;6.17;;
65315;SDS011;51920;53.952;10.292;2023-02-28T05:58:56;12.90;;;6.75;;
65315;SDS011;51920;53.952;10.292;2023-02-28T06:01:24;12.00;;;6.57;;
65315;SDS011;51920;53.952;10.292;2023-02-28T06:03:58;9.20;;;6.17;;
65315;SDS011;51920;53.952;10.292;2023-02-28T06:06:25;10.95;;;6.72;;
65315;SDS011;51920;53.952;10.292;2023-02-28T06:08:50;11.00;;;6.20;;
65315;SDS011;51920;53.952;10.292;2023-02-28T06:11:16;12.17;;;6.93;;
65315;SDS011;51920;53.952;10.292;2023-02-28T06:13:45;11.05;;;6.50;;
65315;SDS011;51920;53.952;10.292;2023-02-28T06:16:11;12.03;;;6.63;;
65315;SDS011;51920;53.952;10.292;2023-02-28T06:18:37;12.88;;;6.45;;
65315;SDS011;51920;53.952;10.292;2023-02-28T06:21:03;12.00;;;6.47;;
65315;SDS011;51920;53.952;10.292;2023-02-28T06:23:28;13.03;;;6.63;;
65315;SDS011;51920;53.952;10.292;2023-02-28T06:25:54;11.52;;;6.40;;
65315;SDS011;51920;53.952;10.292;2023-02-28T06:28:23;13.93;;;6.20;;
65315;SDS011;51920;53.952;10.292;2023-02-28T06:30:50;12.07;;;6.47;;
65315;SDS011;51920;53.952;10.292;2023-02-28T06:33:16;11.48;;;6.90;;
65315;SDS011;51920;53.952;10.292;2023-02-28T06:35:46;10.67;;;6.70;;
65315;SDS011;51920;53.952;10.292;2023-02-28T06:38:13;11.82;;;6.30;;
65315;SDS011;51920;53.952;10.292;2023-02-28T06:40:38;14.17;;;6.77;;
65315;SDS011;51920;53.952;10.292;2023-02-28T06:43:04;12.88;;;7.10;;
65315;SDS011;51920;53.952;10.292;2023-02-28T06:45:29;12.47;;;6.90;;
65315;SDS011;51920;53.952;10.292;2023-02-28T06:47:55;12.87;;;7.50;;
65315;SDS011;51920;53.952;10.292;2023-02-28T06:50:20;15.05;;;8.07;;
65315;SDS011;51920;53.952;10.292;2023-02-28T06:52:46;19.20;;;7.90;;
65315;SDS011;51920;53.952;10.292;2023-02-28T06:55:12;16.70;;;8.98;;
65315;SDS011;51920;53.952;10.292;2023-02-28T06:57:38;15.40;;;8.03;;
65315;SDS011;51920;53.952;10.292;2023-02-28T07:00:07;16.67;;;8.40;;
65315;SDS011;51920;53.952;10.292;2023-02-28T07:02:34;16.23;;;8.60;;
65315;SDS011;51920;53.952;10.292;2023-02-28T07:05:01;15.45;;;7.75;;
65315;SDS011;51920;53.952;10.292;2023-02-28T07:07:26;15.88;;;8.52;;
65315;SDS011;51920;53.952;10.292;2023-02-28T07:09:52;14.77;;;7.80;;
65315;SDS011;51920;53.952;10.292;2023-02-28T07:12:17;17.93;;;8.60;;
65315;SDS011;51920;53.952;10.292;2023-02-28T07:14:43;17.87;;;9.37;;
65315;SDS011;51920;53.952;10.292;2023-02-28T07:17:08;14.10;;;7.33;;
65315;SDS011;51920;53.952;10.292;2023-02-28T07:19:37;16.30;;;8.32;;
65315;SDS011;51920;53.952;10.292;2023-02-28T07:22:05;13.10;;;7.70;;
65315;SDS011;51920;53.952;10.292;2023-02-28T07:24:31;11.80;;;6.80;;
65315;SDS011;51920;53.952;10.292;2023-02-28T07:26:57;11.35;;;6.68;;
65315;SDS011;51920;53.952;10.292;2023-02-28T07:29:22;10.93;;;5.40;;
65315;SDS011;51920;53.952;10.292;2023-02-28T07:31:48;11.17;;;5.80;;
65315;SDS011;51920;53.952;10.292;2023-02-28T07:34:15;10.65;;;6.20;;
65315;SDS011;51920;53.952;10.292;2023-02-28T07:36:41;12.20;;;6.80;;
65315;SDS011;51920;53.952;10.292;2023-02-28T07:39:06;16.00;;;8.13;;
65315;SDS011;51920;53.952;10.292;2023-02-28T07:41:35;15.07;;;6.60;;
65315;SDS011;51920;53.952;10.292;2023-02-28T07:44:04;8.82;;;5.60;;
65315;SDS011;51920;53.952;10.292;2023-02-28T07:46:30;10.63;;;5.30;;
65315;SDS011;51920;53.952;10.292;2023-02-28T07:49:00;8.73;;;5.38;;
65315;SDS011;51920;53.952;10.292;2023-02-28T07:51:28;11.10;;;5.30;;
65315;SDS011;51920;53.952;10.292;2023-02-28T07:53:54;9.73;;;5.93;;
65315;SDS011;51920;53.952;10.292;2023-02-28T07:56:19;10.93;;;6.60;;
65315;SDS011;51920;53.952;10.292;2023-02-28T07:58:45;13.47;;;8.00;;
65315;SDS011;51920;53.952;10.292;2023-02-28T08:01:10;12.07;;;7.30;;
65315;SDS011;51920;53.952;10.292;2023-02-28T08:03:37;11.70;;;6.03;;
65315;SDS011;51920;53.952;10.292;2023-02-28T08:06:04;14.48;;;7.32;;
65315;SDS011;51920;53.952;10.292;2023-02-28T08:08:30;10.87;;;6.07;;
65315;SDS011;51920;53.952;10.292;2023-02-28T08:11:02;13.35;;;6.85;;
65315;SDS011;51920;53.952;10.292;2023-02-28T08:13:28;14.77;;;8.70;;
65315;SDS011;51920;53.952;10.292;2023-02-28T08:15:55;11.18;;;6.68;;
65315;SDS011;51920;53.952;10.292;2023-02-28T08:18:22;11.50;;;5.87;;
65315;SDS011;51920;53.952;10.292;2023-02-28T08:20:48;11.77;;;5.95;;
65315;SDS011;51920;53.952;10.292;2023-02-28T08:23:14;10.98;;;6.38;;
65315;SDS011;51920;53.952;10.292;2023-02-28T08:25:40;9.90;;;5.80;;
65315;SDS011;51920;53.952;10.292;2023-02-28T08:28:05;10.30;;;5.78;;
65315;SDS011;51920;53.952;10.292;2023-02-28T08:30:31;10.80;;;5.57;;
65315;SDS011;51920;53.952;10.292;2023-02-28T08:32:56;10.87;;;5.43;;
65315;SDS011;51920;53.952;10.292;2023-02-28T08:35:22;9.03;;;5.57;;
65315;SDS011;51920;53.952;10.292;2023-02-28T08:37:48;11.45;;;5.50;;
65315;SDS011;51920;53.952;10.292;2023-02-28T08:40:14;11.10;;;5.38;;
65315;SDS011;51920;53.952;10.292;2023-02-28T08:42:44;9.77;;;5.63;;
65315;SDS011;51920;53.952;10.292;2023-02-28T08:45:11;11.52;;;5.60;;
65315;SDS011;51920;53.952;10.292;2023-02-28T08:47:37;10.30;;;5.40;;
65315;SDS011;51920;53.952;10.292;2023-02-28T08:50:03;9.63;;;5.57;;
65315;SDS011;51920;53.952;10.292;2023-02-28T08:52:29;8.40;;;5.50;;
65315;SDS011;51920;53.952;10.292;2023-02-28T08:54:55;11.25;;;6.82;;
65315;SDS011;51920;53.952;10.292;2023-02-28T08:57:20;8.60;;;5.37;;
65315;SDS011;51920;53.952;10.292;2023-02-28T08:59:46;11.38;;;5.72;;
65315;SDS011;51920;53.952;10.292;2023-02-28T09:02:14;10.63;;;5.90;;
65315;SDS011;51920;53.952;10.292;2023-02-28T09:04:40;10.15;;;5.40;;
65315;SDS011;51920;53.952;10.292;2023-02-28T09:07:06;10.52;;;5.80;;
65315;SDS011;51920;53.952;10.292;2023-02-28T09:09:32;9.63;;;5.27;;
65315;SDS011;51920;53.952;10.292;2023-02-28T09:11:58;7.15;;;4.57;;
65315;SDS011;51920;53.952;10.292;2023-02-28T09:14:24;7.75;;;4.57;;
65315;SDS011;51920;53.952;10.292;2023-02-28T09:16:49;8.07;;;4.00;;
65315;SDS011;51920;53.952;10.292;2023-02-28T09:19:15;9.63;;;4.37;;
65315;SDS011;51920;53.952;10.292;2023-02-28T09:21:40;8.70;;;4.73;;
65315;SDS011;51920;53.952;10.292;2023-02-28T09:24:06;6.13;;;3.55;;
65315;SDS011;51920;53.952;10.292;2023-02-28T09:26:32;8.20;;;4.18;;
65315;SDS011;51920;53.952;10.292;2023-02-28T09:28:59;8.70;;;3.87;;
65315;SDS011;51920;53.952;10.292;2023-02-28T09:31:26;6.70;;;3.60;;
65315;SDS011;51920;53.952;10.292;2023-02-28T09:33:54;5.95;;;3.50;;
65315;SDS011;51920;53.952;10.292;2023-02-28T09:36:21;7.32;;;3.40;;
65315;SDS011;51920;53.952;10.292;2023-02-28T09:38:48;6.50;;;3.72;;
65315;SDS011;51920;53.952;10.292;2023-02-28T09:41:17;6.83;;;3.63;;
65315;SDS011;51920;53.952;10.292;2023-02-28T09:43:50;5.53;;;3.13;;
65315;SDS011;51920;53.952;10.292;2023-02-28T09:46:33;6.68;;;3.70;;
65315;SDS011;51920;53.952;10.292;2023-02-28T09:49:06;7.88;;;3.40;;
65315;SDS011;51920;53.952;10.292;2023-02-28T09:54:06;4.90;;;2.90;;
65315;SDS011;51920;53.952;10.292;2023-02-28T09:56:41;6.32;;;3.00;;
65315;SDS011;51920;53.952;10.292;2023-02-28T09:59:17;6.57;;;3.60;;
65315;SDS011;51920;53.952;10.292;2023-02-28T10:01:57;5.65;;;3.20;;
65315;SDS011;51920;53.952;10.292;2023-02-28T10:07:07;3.70;;;2.73;;
65315;SDS011;51920;53.952;10.292;2023-02-28T10:09:43;4.63;;;2.95;;
65315;SDS011;51920;53.952;10.292;2023-02-28T10:12:16;4.95;;;3.28;;
65315;SDS011;51920;53.952;10.292;2023-02-28T10:14:44;6.15;;;3.47;;
65315;SDS011;51920;53.952;10.292;2023-02-28T10:17:12;4.30;;;3.28;;
65315;SDS011;51920;53.952;10.292;2023-02-28T10:22:19;5.53;;;3.10;;
65315;SDS011;51920;53.952;10.292;2023-02-28T10:25:17;5.22;;;2.95;;
65315;SDS011;51920;53.952;10.292;2023-02-28T10:27:44;4.40;;;2.90;;
65315;SDS011;51920;53.952;10.292;2023-02-28T10:30:10;4.07;;;2.90;;
65315;SDS011;51920;53.952;10.292;2023-02-28T10:32:37;5.40;;;2.90;;
65315;SDS011;51920;53.952;10.292;2023-02-28T10:35:15;4.13;;;2.50;;
65315;SDS011;51920;53.952;10.292;2023-02-28T10:37:45;3.30;;;2.30;;
65315;SDS011;51920;53.952;10.292;2023-02-28T10:40:31;4.32;;;2.50;;
65315;SDS011;51920;53.952;10.292;2023-02-28T10:43:01;4.50;;;2.60;;
65315;SDS011;51920;53.952;10.292;2023-02-28T10:45:58;4.88;;;2.90;;
65315;SDS011;51920;53.952;10.292;2023-02-28T10:48:29;5.68;;;2.67;;
65315;SDS011;51920;53.952;10.292;2023-02-28T10:50:57;4.18;;;2.80;;
65315;SDS011;51920;53.952;10.292;2023-02-28T10:56:06;4.67;;;2.97;;
65315;SDS011;51920;53.952;10.292;2023-02-28T10:58:57;5.47;;;2.85;;
65315;SDS011;51920;53.952;10.292;2023-02-28T11:01:45;5.35;;;2.83;;
65315;SDS011;51920;53.952;10.292;2023-02-28T11:09:44;4.33;;;2.90;;
65315;SDS011;51920;53.952;10.292;2023-02-28T11:12:23;4.72;;;2.60;;
65315;SDS011;51920;53.952;10.292;2023-02-28T11:14:51;3.50;;;2.58;;
65315;SDS011;51920;53.952;10.292;2023-02-28T11:17:23;4.40;;;2.45;;
65315;SDS011;51920;53.952;10.292;2023-02-28T11:19:51;3.95;;;2.63;;
65315;SDS011;51920;53.952;10.292;2023-02-28T11:22:21;3.77;;;2.40;;
65315;SDS011;51920;53.952;10.292;2023-02-28T11:24:51;4.70;;;2.78;;
65315;SDS011;51920;53.952;10.292;2023-02-28T11:29:54;3.33;;;2.35;;
65315;SDS011;51920;53.952;10.292;2023-02-28T11:32:21;3.30;;;2.50;;
65315;SDS011;51920;53.952;10.292;2023-02-28T11:37:38;5.53;;;2.53;;
65315;SDS011;51920;53.952;10.292;2023-02-28T11:43:11;4.73;;;2.50;;
65315;SDS011;51920;53.952;10.292;2023-02-28T11:45:57;4.70;;;2.70;;
65315;SDS011;51920;53.952;10.292;2023-02-28T11:48:40;4.35;;;2.70;;
65315;SDS011;51920;53.952;10.292;2023-02-28T11:51:32;3.33;;;2.50;;
65315;SDS011;51920;53.952;10.292;2023-02-28T11:56:46;5.80;;;2.60;;
65315;SDS011;51920;53.952;10.292;2023-02-28T12:10:44;5.30;;;2.60;;
65315;SDS011;51920;53.952;10.292;2023-02-28T12:13:22;4.38;;;2.58;;
65315;SDS011;51920;53.952;10.292;2023-02-28T12:16:20;5.45;;;3.05;;
65315;SDS011;51920;53.952;10.292;2023-02-28T12:27:43;6.38;;;3.00;;
65315;SDS011;51920;53.952;10.292;2023-02-28T12:30:25;3.92;;;3.03;;
65315;SDS011;51920;53.952;10.292;2023-02-28T12:32:55;3.95;;;2.70;;
65315;SDS011;51920;53.952;10.292;2023-02-28T12:35:48;5.13;;;3.03;;
65315;SDS011;51920;53.952;10.292;2023-02-28T12:38:17;5.43;;;3.07;;
65315;SDS011;51920;53.952;10.292;2023-02-28T12:43:20;4.03;;;2.90;;
65315;SDS011;51920;53.952;10.292;2023-02-28T12:45:58;4.28;;;2.92;;
65315;SDS011;51920;53.952;10.292;2023-02-28T12:51:08;4.70;;;3.30;;
65315;SDS011;51920;53.952;10.292;2023-02-28T13:04:55;3.30;;;2.27;;
65315;SDS011;51920;53.952;10.292;2023-02-28T13:10:37;3.72;;;2.70;;
65315;SDS011;51920;53.952;10.292;2023-02-28T13:13:28;4.57;;;2.78;;
65315;SDS011;51920;53.952;10.292;2023-02-28T13:16:03;3.72;;;2.70;;
65315;SDS011;51920;53.952;10.292;2023-02-28T13:18:33;4.23;;;2.63;;
65315;SDS011;51920;53.952;10.292;2023-02-28T13:21:21;4.55;;;2.50;;
65315;SDS011;51920;53.952;10.292;2023-02-28T13:34:35;3.88;;;2.45;;
65315;SDS011;51920;53.952;10.292;2023-02-28T13:47:41;3.25;;;2.53;;
65315;SDS011;51920;53.952;10.292;2023-02-28T13:55:42;5.97;;;3.05;;
65315;SDS011;51920;53.952;10.292;2023-02-28T13:58:20;4.63;;;2.50;;
65315;SDS011;51920;53.952;10.292;2023-02-28T14:06:32;4.05;;;2.60;;
65315;SDS011;51920;53.952;10.292;2023-02-28T14:09:00;3.75;;;2.70;;
65315;SDS011;51920;53.952;10.292;2023-02-28T14:11:34;3.30;;;2.30;;
65315;SDS011;51920;53.952;10.292;2023-02-28T14:14:01;3.35;;;2.58;;
65315;SDS011;51920;53.952;10.292;2023-02-28T14:16:35;6.32;;;3.10;;
65315;SDS011;51920;53.952;10.292;2023-02-28T14:19:12;4.20;;;2.50;;
65315;SDS011;51920;53.952;10.292;2023-02-28T14:21:59;3.95;;;2.90;;
65315;SDS011;51920;53.952;10.292;2023-02-28T14:25:05;4.40;;;2.80;;
65315;SDS011;51920;53.952;10.292;2023-02-28T14:27:40;3.65;;;2.50;;
65315;SDS011;51920;53.952;10.292;2023-02-28T14:36:10;4.25;;;2.60;;
65315;SDS011;51920;53.952;10.292;2023-02-28T14:38:49;3.30;;;2.50;;
65315;SDS011;51920;53.952;10.292;2023-02-28T14:41:23;3.90;;;2.80;;
65315;SDS011;51920;53.952;10.292;2023-02-28T14:43:49;4.55;;;3.28;;
65315;SDS011;51920;53.952;10.292;2023-02-28T14:46:16;4.07;;;2.70;;
65315;SDS011;51920;53.952;10.292;2023-02-28T14:48:45;4.93;;;2.92;;
65315;SDS011;51920;53.952;10.292;2023-02-28T14:51:11;4.73;;;2.80;;
65315;SDS011;51920;53.952;10.292;2023-02-28T14:53:42;4.63;;;3.00;;
65315;SDS011;51920;53.952;10.292;2023-02-28T14:56:17;5.15;;;3.50;;
65315;SDS011;51920;53.952;10.292;2023-02-28T14:58:51;4.57;;;2.80;;
65315;SDS011;51920;53.952;10.292;2023-02-28T15:01:19;5.68;;;3.30;;
65315;SDS011;51920;53.952;10.292;2023-02-28T15:03:47;4.10;;;2.87;;
65315;SDS011;51920;53.952;10.292;2023-02-28T15:06:16;4.53;;;3.17;;
65315;SDS011;51920;53.952;10.292;2023-02-28T15:08:43;4.72;;;3.47;;
65315;SDS011;51920;53.952;10.292;2023-02-28T15:11:17;5.05;;;3.25;;
65315;SDS011;51920;53.952;10.292;2023-02-28T15:21:38;4.68;;;3.78;;
65315;SDS011;51920;53.952;10.292;2023-02-28T15:26:50;5.68;;;3.97;;
65315;SDS011;51920;53.952;10.292;2023-02-28T15:29:20;5.17;;;3.30;;
65315;SDS011;51920;53.952;10.292;2023-02-28T15:31:49;4.68;;;3.13;;
65315;SDS011;51920;53.952;10.292;2023-02-28T15:37:05;4.77;;;3.50;;
65315;SDS011;51920;53.952;10.292;2023-02-28T15:39:48;5.72;;;3.60;;
65315;SDS011;51920;53.952;10.292;2023-02-28T15:42:21;5.47;;;3.63;;
65315;SDS011;51920;53.952;10.292;2023-02-28T15:44:47;5.45;;;3.70;;
65315;SDS011;51920;53.952;10.292;2023-02-28T15:47:21;6.43;;;3.80;;
65315;SDS011;51920;53.952;10.292;2023-02-28T15:49:56;5.30;;;3.95;;
65315;SDS011;51920;53.952;10.292;2023-02-28T15:52:29;5.15;;;3.55;;
65315;SDS011;51920;53.952;10.292;2023-02-28T15:57:57;5.00;;;3.45;;
65315;SDS011;51920;53.952;10.292;2023-02-28T16:00:27;6.57;;;4.10;;
65315;SDS011;51920;53.952;10.292;2023-02-28T16:02:53;7.18;;;4.00;;
65315;SDS011;51920;53.952;10.292;2023-02-28T16:05:21;6.03;;;3.63;;
65315;SDS011;51920;53.952;10.292;2023-02-28T16:07:57;6.03;;;3.60;;
65315;SDS011;51920;53.952;10.292;2023-02-28T16:10:24;7.30;;;4.10;;
65315;SDS011;51920;53.952;10.292;2023-02-28T16:12:55;4.95;;;3.95;;
65315;SDS011;51920;53.952;10.292;2023-02-28T16:15:26;6.20;;;3.85;;
65315;SDS011;51920;53.952;10.292;2023-02-28T16:17:54;5.13;;;3.70;;
65315;SDS011;51920;53.952;10.292;2023-02-28T16:20:27;5.50;;;3.40;;
65315;SDS011;51920;53.952;10.292;2023-02-28T16:22:54;5.07;;;3.85;;
65315;SDS011;51920;53.952;10.292;2023-02-28T16:25:32;5.47;;;3.60;;
65315;SDS011;51920;53.952;10.292;2023-02-28T16:28:00;5.93;;;3.60;;
65315;SDS011;51920;53.952;10.292;2023-02-28T16:30:27;5.38;;;4.03;;
65315;SDS011;51920;53.952;10.292;2023-02-28T16:32:56;5.43;;;3.63;;
65315;SDS011;51920;53.952;10.292;2023-02-28T16:35:22;5.80;;;4.13;;
65315;SDS011;51920;53.952;10.292;2023-02-28T16:37:50;5.63;;;4.00;;
65315;SDS011;51920;53.952;10.292;2023-02-28T16:40:21;7.37;;;4.13;;
65315;SDS011;51920;53.952;10.292;2023-02-28T16:42:51;5.72;;;4.00;;
65315;SDS011;51920;53.952;10.292;2023-02-28T16:45:23;5.50;;;4.13;;
65315;SDS011;51920;53.952;10.292;2023-02-28T16:47:51;6.43;;;4.10;;
65315;SDS011;51920;53.952;10.292;2023-02-28T16:50:21;7.68;;;4.60;;
65315;SDS011;51920;53.952;10.292;2023-02-28T16:52:49;8.10;;;4.30;;
65315;SDS011;51920;53.952;10.292;2023-02-28T16:55:17;7.57;;;4.80;;
65315;SDS011;51920;53.952;10.292;2023-02-28T16:57:50;6.80;;;4.60;;
65315;SDS011;51920;53.952;10.292;2023-02-28T17:00:18;7.78;;;4.53;;
65315;SDS011;51920;53.952;10.292;2023-02-28T17:02:43;8.03;;;5.20;;
65315;SDS011;51920;53.952;10.292;2023-02-28T17:05:12;9.17;;;5.50;;
65315;SDS011;51920;53.952;10.292;2023-02-28T17:07:38;6.57;;;4.67;;
65315;SDS011;51920;53.952;10.292;2023-02-28T17:10:12;7.30;;;4.80;;
65315;SDS011;51920;53.952;10.292;2023-02-28T17:12:39;5.93;;;4.30;;
65315;SDS011;51920;53.952;10.292;2023-02-28T17:15:05;6.10;;;4.00;;
65315;SDS011;51920;53.952;10.292;2023-02-28T17:17:31;7.38;;;4.15;;